createdAt,value
2017-12-25T00:04:44.105Z,88.14
2017-12-25T00:09:44.935Z,87.84
2017-12-25T00:14:45.728Z,88.13
2017-12-25T00:19:46.537Z,88.95
2017-12-25T00:24:48.138Z,88.59
2017-12-25T00:29:48.913Z,89.04
2017-12-25T00:34:49.702Z,89.19
2017-12-25T00:39:50.509Z,88.48
2017-12-25T00:44:51.309Z,88.81
2017-12-25T00:49:52.109Z,88.73
2017-12-25T00:54:52.873Z,88.71
2017-12-25T01:05:29.502Z,89.14
2017-12-25T01:10:30.322Z,89.27
2017-12-25T01:15:31.121Z,89.57
2017-12-25T01:20:31.943Z,90.02
2017-12-25T01:25:32.749Z,89.53
2017-12-25T01:30:33.568Z,89.28
2017-12-25T01:35:34.375Z,89.33
2017-12-25T01:40:35.209Z,89.41
2017-12-25T01:45:49.009Z,89.38
2017-12-25T01:50:49.842Z,90.28
2017-12-25T01:55:50.650Z,89.69
2017-12-25T04:26:08.252Z,86.93
2017-12-25T04:31:09.073Z,87.79
2017-12-25T04:36:09.881Z,87.51
2017-12-25T04:41:10.718Z,87.65
2017-12-25T04:46:11.555Z,87.00
2017-12-25T04:51:12.442Z,86.76
2017-12-25T04:56:13.234Z,87.65
2017-12-25T05:01:14.032Z,88.22
2017-12-25T05:06:14.821Z,88.35
2017-12-25T05:11:15.645Z,88.94
2017-12-25T05:16:16.463Z,88.87
2017-12-25T05:21:17.249Z,88.93
2017-12-25T05:26:18.058Z,89.13
2017-12-25T05:31:18.871Z,89.31
2017-12-25T05:52:43.688Z,89.50
2017-12-25T05:57:44.490Z,89.12
2017-12-25T06:02:45.288Z,89.09
2017-12-25T06:07:46.084Z,89.37
2017-12-25T06:12:46.880Z,88.99
2017-12-25T06:17:47.681Z,88.90
2017-12-25T06:22:48.489Z,88.19
2017-12-25T06:27:49.294Z,88.71
2017-12-25T06:32:50.077Z,89.13
2017-12-25T06:37:50.886Z,88.51
2017-12-25T06:42:51.686Z,88.89
2017-12-25T07:04:36.690Z,88.65
2017-12-25T07:09:37.484Z,88.82
2017-12-25T07:14:42.156Z,88.71
2017-12-25T07:19:42.957Z,88.87
2017-12-25T07:24:43.739Z,89.16
2017-12-25T07:29:49.318Z,89.64
2017-12-25T07:34:50.114Z,89.65
2017-12-25T07:39:50.927Z,89.14
2017-12-25T07:45:14.279Z,88.75
2017-12-25T07:55:53.813Z,88.88
2017-12-25T08:00:54.623Z,88.52
2017-12-25T08:16:52.555Z,87.56
2017-12-25T08:21:53.367Z,88.77
2017-12-25T08:43:18.274Z,87.82
2017-12-25T08:48:19.141Z,88.43
2017-12-25T08:53:19.945Z,88.54
2017-12-25T08:58:20.768Z,88.32
2017-12-25T09:03:21.598Z,88.76
2017-12-25T09:08:22.406Z,88.84
2017-12-25T09:13:23.194Z,88.58
2017-12-25T09:18:23.989Z,87.21
2017-12-25T09:23:25.441Z,87.48
2017-12-25T09:28:26.246Z,87.52
2017-12-25T09:33:27.077Z,88.17
2017-12-25T09:38:27.901Z,87.23
2017-12-25T09:43:28.710Z,86.85
2017-12-25T09:48:29.505Z,87.48
2017-12-25T09:53:30.305Z,87.22
2017-12-25T09:58:31.121Z,87.46
2017-12-25T10:03:31.921Z,87.59
2017-12-25T10:08:32.724Z,88.30
2017-12-25T10:13:33.529Z,87.93
2017-12-25T10:18:34.322Z,87.70
2017-12-25T10:23:35.126Z,86.84
2017-12-25T10:28:35.933Z,87.81
2017-12-25T10:33:36.745Z,87.69
2017-12-25T10:38:37.607Z,87.43
2017-12-25T10:43:38.405Z,87.14
2017-12-25T10:48:39.210Z,86.85
2017-12-25T10:53:40.040Z,86.64
2017-12-25T10:58:40.850Z,85.81
2017-12-25T11:03:41.706Z,86.80
2017-12-25T11:08:42.522Z,87.37
2017-12-25T11:13:43.343Z,86.33
2017-12-25T11:18:44.171Z,87.07
2017-12-25T11:23:44.977Z,86.49
2017-12-25T11:28:45.818Z,86.92
2017-12-25T11:33:46.633Z,85.64
2017-12-25T11:38:47.441Z,84.63
2017-12-25T11:43:48.274Z,83.17
2017-12-25T11:48:49.144Z,84.66
2017-12-25T11:53:49.985Z,84.03
2017-12-25T11:58:50.833Z,85.45
2017-12-25T12:03:51.649Z,86.48
2017-12-25T12:08:52.472Z,87.20
2017-12-25T12:13:53.332Z,85.53
2017-12-25T12:18:54.205Z,86.13
2017-12-25T12:23:55.040Z,86.09
2017-12-25T12:28:55.871Z,84.75
2017-12-25T12:33:56.658Z,84.83
2017-12-25T12:38:57.466Z,84.72
2017-12-25T12:43:58.297Z,86.02
2017-12-25T12:48:59.094Z,85.65
2017-12-25T13:10:24.330Z,86.06
2017-12-25T13:15:25.181Z,85.90
2017-12-25T13:20:25.973Z,86.89
2017-12-25T13:25:26.824Z,86.64
2017-12-25T13:30:27.680Z,86.62
2017-12-25T13:35:29.265Z,86.93
2017-12-25T13:40:30.120Z,87.51
2017-12-25T13:45:30.957Z,87.17
2017-12-25T13:50:31.760Z,86.57
2017-12-25T13:55:32.599Z,86.79
2017-12-25T14:00:33.417Z,86.68
2017-12-25T14:05:34.240Z,87.17
2017-12-25T14:10:35.075Z,87.12
2017-12-25T14:15:35.935Z,86.84
2017-12-25T14:20:36.737Z,88.06
2017-12-25T14:25:37.572Z,88.45
2017-12-25T14:30:38.399Z,87.99
2017-12-25T14:35:39.238Z,88.47
2017-12-25T14:40:40.057Z,89.02
2017-12-25T14:45:40.942Z,89.56
2017-12-25T14:50:41.766Z,89.57
2017-12-25T14:55:42.609Z,89.46
2017-12-25T15:17:05.986Z,89.20
2017-12-25T15:22:06.796Z,88.65
2017-12-25T15:27:07.644Z,87.90
2017-12-25T15:32:08.490Z,88.39
2017-12-25T15:37:09.322Z,88.55
2017-12-25T15:42:10.203Z,88.10
2017-12-25T15:47:11.005Z,88.18
2017-12-25T15:52:11.846Z,88.14
2017-12-25T15:57:12.701Z,87.48
2017-12-25T16:02:13.538Z,87.91
2017-12-25T16:07:14.347Z,88.18
2017-12-25T16:12:15.191Z,87.74
2017-12-25T16:17:15.982Z,87.73
2017-12-25T16:22:16.782Z,87.59
2017-12-25T16:27:17.613Z,87.59
2017-12-25T16:32:18.509Z,87.96
2017-12-25T16:37:19.320Z,88.11
2017-12-25T16:42:20.130Z,87.87
2017-12-25T16:47:21.919Z,87.73
2017-12-25T16:52:22.730Z,88.02
2017-12-25T16:57:23.528Z,88.34
2017-12-25T17:02:24.439Z,88.20
2017-12-25T17:07:25.225Z,88.50
2017-12-25T17:12:26.038Z,88.09
2017-12-25T17:17:27.818Z,88.44
2017-12-25T17:22:28.607Z,88.83
2017-12-25T17:38:42.326Z,89.41
2017-12-25T17:43:43.130Z,89.59
2017-12-25T17:48:43.967Z,89.51
2017-12-25T17:53:44.828Z,89.81
2017-12-25T17:58:45.658Z,89.85
2017-12-25T18:03:46.500Z,90.03
2017-12-25T18:08:47.297Z,90.43
2017-12-25T18:13:48.216Z,90.77
2017-12-25T18:18:49.012Z,91.08
2017-12-25T18:23:49.832Z,91.16
2017-12-25T18:28:50.617Z,91.34
2017-12-25T18:33:51.422Z,91.85
2017-12-25T18:38:52.259Z,91.87
2017-12-25T18:43:53.070Z,91.63
2017-12-25T18:48:53.897Z,91.72
2017-12-25T18:53:54.669Z,92.30
2017-12-25T19:15:19.346Z,92.43
2017-12-25T19:20:44.050Z,93.11
2017-12-25T19:25:44.846Z,93.51
2017-12-25T19:30:45.683Z,93.12
2017-12-25T19:35:46.528Z,93.26
2017-12-25T19:40:47.349Z,93.48
2017-12-25T19:45:48.192Z,93.81
2017-12-25T19:50:48.993Z,93.71
2017-12-25T19:55:49.777Z,94.24
2017-12-25T20:00:50.568Z,94.25
2017-12-25T20:05:51.458Z,94.34
2017-12-25T20:10:52.260Z,94.66
2017-12-25T20:15:53.054Z,94.76
2017-12-25T20:20:53.916Z,94.97
2017-12-25T20:25:54.743Z,95.06
2017-12-25T20:30:55.586Z,95.17
2017-12-25T20:35:56.439Z,95.56
2017-12-25T20:40:57.385Z,95.57
2017-12-25T20:45:58.387Z,95.37
2017-12-25T20:50:59.413Z,95.20
2017-12-25T20:56:00.252Z,95.02
2017-12-25T21:01:01.112Z,95.22
2017-12-25T21:06:01.960Z,95.18
2017-12-25T21:11:03.080Z,94.74
2017-12-25T21:16:03.929Z,94.86
2017-12-25T21:21:04.906Z,94.80
2017-12-25T21:26:05.769Z,95.19
2017-12-25T21:31:06.634Z,95.18
2017-12-25T21:36:07.549Z,95.82
2017-12-25T21:41:08.406Z,95.80
2017-12-25T21:46:09.319Z,95.80
2017-12-25T21:51:10.249Z,95.91
2017-12-25T21:56:11.112Z,96.33
2017-12-25T22:01:11.945Z,96.67
2017-12-25T22:06:12.911Z,96.80
2017-12-25T22:11:13.776Z,96.93
2017-12-25T22:16:14.603Z,96.80
2017-12-25T22:21:15.473Z,96.86
2017-12-25T22:26:16.272Z,97.04
2017-12-25T22:31:17.124Z,97.08
2017-12-25T22:36:17.967Z,97.24
2017-12-25T22:41:18.813Z,97.29
2017-12-25T22:46:19.713Z,97.31
2017-12-25T22:51:20.587Z,97.53
2017-12-25T22:56:21.451Z,97.50
2017-12-25T23:01:22.344Z,97.53
2017-12-25T23:06:23.193Z,97.47
2017-12-25T23:11:24.084Z,97.43
2017-12-25T23:16:24.937Z,97.46
2017-12-25T23:21:25.820Z,97.48
2017-12-25T23:26:26.673Z,97.53
2017-12-25T23:31:27.543Z,97.31
2017-12-25T23:36:28.320Z,97.65
2017-12-25T23:41:29.162Z,97.42
2017-12-25T23:46:30.005Z,97.39
2017-12-25T23:51:30.836Z,97.00
2017-12-25T23:56:31.630Z,97.08
